LEST/SCQ METAR and TAF weather

Enter ICAO airport designator
Station Type Date Time Source
LEST METAR 2019/04/25 09:48 UTC NOAA

LEST 250948Z 21012KT 170V260 9999 SCT015CB BKN020 09/07 Q1004 RETS TEMPO 3000 SHRA TS


Station Type Date Time Source
LEST Decoded METAR 2019/04/25 09:48 UTC NOAA

Santiago / Labacolla, Spain (LEST) 42-54N 008-26W 367M
Apr 25, 2019 - 05:48 AM EDT / 2019.04.25 0948 UTC
Wind: from the SSW (210 degrees) at 14 MPH (12 KT) (direction variable):0
Visibility: greater than 7 mile(s):0
Sky conditions: mostly cloudy
Weather: Cumulonimbus clouds observed
Temperature: 48 F (9 C)
Dew Point: 44 F (7 C)
Relative Humidity: 87%
Pressure (altimeter): 29.65 in. Hg (1004 hPa)
ob: LEST 250948Z 21012KT 170V260 9999 SCT015CB BKN020 09/07 Q1004 RETS TEMPO 3000 SHRA TS
cycle: 10

Station Type Date Time Source
LEST TAF 2019/04/25 09:45 UTC NOAA

TAF
AMD LEST 250939Z 2509/2606 23009KT 9999 SCT030 TX11/2514Z TN07/2606Z
TEMPO 2509/2606 SHRA SCT020TCU PROB40
TEMPO 2509/2512 24015G25KT 3000 SHRAGR TS BKN020CB PROB40
TEMPO 2511/2519 27020G32KT TSRA BKN020CB PROB40
TEMPO 2519/2524 27015G25KT PROB30
TEMPO 2511/2516 25025G43KT

Example: see airport list